createdAt,value
2023-05-22T00:00:41.357Z,3.5
2023-05-22T00:04:40.755Z,3.85
2023-05-22T00:08:40.018Z,3.85
2023-05-22T00:12:40.765Z,4.2
2023-05-22T00:16:40.591Z,3.42
2023-05-22T00:20:41.220Z,4.32
2023-05-22T00:24:40.532Z,3.33
2023-05-22T00:28:40.403Z,3.42
2023-05-22T00:32:41.101Z,3.65
2023-05-22T00:36:40.452Z,3.58
2023-05-22T00:40:40.860Z,3.53
2023-05-22T00:44:39.681Z,4.18
2023-05-22T00:48:40.695Z,3.9
2023-05-22T00:52:40.462Z,3.9
2023-05-22T00:56:40.477Z,3.45
2023-05-22T01:00:41.372Z,4.1
2023-05-22T01:04:40.292Z,3.8
2023-05-22T01:08:40.883Z,4
2023-05-22T01:12:40.552Z,3.83
2023-05-22T01:16:40.618Z,4.32
2023-05-22T01:20:40.734Z,4.12
2023-05-22T01:24:39.776Z,4.18
2023-05-22T01:28:40.453Z,4.95
2023-05-22T01:32:40.406Z,3.65
2023-05-22T01:36:40.399Z,4.05
2023-05-22T01:40:40.706Z,3.97
2023-05-22T01:44:40.525Z,4.22
2023-05-22T01:48:40.719Z,3.6
2023-05-22T01:52:40.464Z,3.58
2023-05-22T01:56:39.831Z,4.1
2023-05-22T02:00:40.769Z,4.03
2023-05-22T02:04:41.034Z,4
2023-05-22T02:08:40.075Z,4.82
2023-05-22T02:12:40.970Z,4.37
2023-05-22T02:16:40.400Z,3.78
2023-05-22T02:20:39.557Z,4.57
2023-05-22T02:24:40.767Z,4.35
2023-05-22T02:28:40.454Z,4.53
2023-05-22T02:32:40.432Z,4.6
2023-05-22T02:36:41.075Z,4.43
2023-05-22T02:40:40.928Z,5.05
2023-05-22T02:44:40.522Z,4.15
2023-05-22T02:48:40.292Z,4.75
2023-05-22T02:52:40.539Z,4.47
2023-05-22T02:56:40.335Z,4.4
2023-05-22T03:00:39.995Z,4.18
2023-05-22T03:04:41.040Z,5.68
2023-05-22T03:08:39.870Z,4.7
2023-05-22T03:12:40.688Z,5.22
2023-05-22T03:16:40.668Z,4.78
2023-05-22T03:20:39.691Z,5.03
2023-05-22T03:24:40.838Z,4.9
2023-05-22T03:28:40.777Z,5.28
2023-05-22T03:32:40.681Z,4.1
2023-05-22T03:36:40.433Z,4.75
2023-05-22T03:40:41.006Z,5.4
2023-05-22T03:44:40.529Z,4.65
2023-05-22T03:48:40.579Z,5.25
2023-05-22T03:52:40.490Z,5.35
2023-05-22T03:56:40.276Z,4.45
2023-05-22T04:00:40.625Z,5
2023-05-22T04:04:40.537Z,5.32
2023-05-22T04:08:40.101Z,4.7
2023-05-22T04:12:40.431Z,5.7
2023-05-22T04:16:39.665Z,5.07
2023-05-22T04:20:41.056Z,5.3
2023-05-22T04:24:40.619Z,4.47
2023-05-22T04:28:39.720Z,5.55
2023-05-22T04:32:40.266Z,5.45
2023-05-22T04:36:39.656Z,5.95
2023-05-22T04:40:40.164Z,5.43
2023-05-22T04:44:41.248Z,5.55
2023-05-22T04:48:40.382Z,4.78
2023-05-22T04:52:40.886Z,4.72
2023-05-22T04:56:41.455Z,6
2023-05-22T05:00:41.120Z,5.43
2023-05-22T05:04:40.555Z,4.75
2023-05-22T05:08:40.078Z,6.6
2023-05-22T05:12:40.540Z,6.05
2023-05-22T05:16:40.374Z,7.12
2023-05-22T05:20:41.238Z,5.62
2023-05-22T05:24:40.504Z,5.5
2023-05-22T05:28:40.432Z,5.4
2023-05-22T05:32:40.401Z,4.6
2023-05-22T05:36:40.306Z,5.05
2023-05-22T05:40:41.345Z,5.82
2023-05-22T05:44:40.804Z,5.15
2023-05-22T05:48:40.966Z,5.3
2023-05-22T05:52:40.600Z,5.47
2023-05-22T05:56:40.845Z,5.3
2023-05-22T06:00:40.690Z,6.18
2023-05-22T06:04:40.816Z,7.47
2023-05-22T06:08:40.474Z,8.07
2023-05-22T06:12:39.800Z,5.85
2023-05-22T06:16:40.929Z,5.2
2023-05-22T06:20:40.867Z,5.25
2023-05-22T06:24:40.676Z,5.2
2023-05-22T06:28:40.487Z,5.57
2023-05-22T06:32:39.587Z,5.25
2023-05-22T06:36:40.399Z,5.65
2023-05-22T06:40:40.672Z,6.15
2023-05-22T06:44:41.190Z,5.35
2023-05-22T06:48:40.663Z,5.97
2023-05-22T06:52:40.837Z,5.87
2023-05-22T06:56:40.257Z,5.5
2023-05-22T07:00:41.370Z,5.65
2023-05-22T07:04:40.453Z,5.93
2023-05-22T07:08:40.473Z,5.87
2023-05-22T07:12:40.504Z,5.32
2023-05-22T07:16:40.567Z,5.55
2023-05-22T07:20:40.823Z,5.45
2023-05-22T07:24:40.674Z,5.7
2023-05-22T07:28:40.576Z,4.85
2023-05-22T07:32:40.977Z,4.85
2023-05-22T07:36:40.458Z,5.1
2023-05-22T07:40:39.997Z,4.82
2023-05-22T07:44:40.390Z,5.78
2023-05-22T07:48:40.438Z,4.9
2023-05-22T07:52:40.411Z,4.9
2023-05-22T07:56:40.291Z,4.93
2023-05-22T08:00:40.814Z,4.9
2023-05-22T08:04:40.951Z,5.2
2023-05-22T08:08:40.453Z,4.68
2023-05-22T08:12:40.754Z,4.78
2023-05-22T08:16:40.728Z,4.9
2023-05-22T08:20:40.966Z,4.18
2023-05-22T08:24:40.530Z,4.45
2023-05-22T08:28:40.859Z,4.35
2023-05-22T08:32:40.596Z,3.5
2023-05-22T08:36:40.421Z,3.58
2023-05-22T08:40:42.483Z,3.47
2023-05-22T08:44:40.469Z,3.72
2023-05-22T08:48:40.787Z,3.97
2023-05-22T08:52:40.380Z,3.72
2023-05-22T08:56:52.933Z,3.72
2023-05-22T09:00:39.634Z,3.92
2023-05-22T09:04:40.495Z,3.33
2023-05-22T09:08:40.818Z,2.7
2023-05-22T09:12:40.347Z,3.03
2023-05-22T09:16:41.245Z,3.4
2023-05-22T09:20:40.802Z,2.75
2023-05-22T09:24:40.792Z,3.45
2023-05-22T09:28:40.572Z,3
2023-05-22T09:32:40.506Z,3.42
2023-05-22T09:36:40.221Z,3.15
2023-05-22T09:40:39.732Z,3.3
2023-05-22T09:44:40.882Z,2.97
2023-05-22T09:48:40.840Z,2.92
2023-05-22T09:52:40.492Z,2.6
2023-05-22T09:56:40.523Z,1.7
2023-05-22T10:00:40.764Z,2.08
2023-05-22T10:04:40.772Z,2.4
2023-05-22T10:08:39.298Z,2.83
2023-05-22T10:12:41.317Z,2.22
2023-05-22T10:16:40.430Z,2.53
2023-05-22T10:20:41.368Z,2.62
2023-05-22T10:24:40.486Z,2.15
2023-05-22T10:28:40.437Z,2.67
2023-05-22T10:32:40.296Z,2.47
2023-05-22T10:36:41.005Z,2.4
2023-05-22T10:40:40.342Z,2.6
2023-05-22T10:44:40.444Z,2.4
2023-05-22T10:48:40.500Z,2.87
2023-05-22T10:52:40.984Z,2.3
2023-05-22T10:56:40.454Z,2.45
2023-05-22T11:00:41.257Z,2.3
2023-05-22T11:04:40.841Z,2.45
2023-05-22T11:08:40.533Z,2.65
2023-05-22T11:12:40.453Z,2.42
2023-05-22T11:16:41.236Z,2.35
2023-05-22T11:20:41.337Z,2.4
2023-05-22T11:24:40.389Z,2.55
2023-05-22T11:28:40.489Z,2.28
2023-05-22T11:32:40.565Z,2.3
2023-05-22T11:36:40.680Z,2.75
2023-05-22T11:40:40.634Z,2.6
2023-05-22T11:44:40.564Z,2.2
2023-05-22T11:48:40.520Z,2.65
2023-05-22T11:52:40.521Z,1.98
2023-05-22T11:56:40.588Z,2.72
2023-05-22T12:00:40.948Z,1.95
2023-05-22T12:04:40.556Z,2.37
2023-05-22T12:08:40.552Z,1.98
2023-05-22T12:12:40.382Z,2.2
2023-05-22T12:16:40.661Z,2.45
2023-05-22T12:20:40.764Z,2
2023-05-22T12:24:40.481Z,2.08
2023-05-22T12:28:40.431Z,2.33
2023-05-22T12:32:40.606Z,1.95
2023-05-22T12:36:40.404Z,1.95
2023-05-22T12:40:41.009Z,2.08
2023-05-22T12:44:40.300Z,2.87
2023-05-22T12:48:40.486Z,2.2
2023-05-22T12:52:41.072Z,2.47
2023-05-22T12:56:40.342Z,2.3
2023-05-22T13:00:40.973Z,2.25
2023-05-22T13:04:40.482Z,2.6
2023-05-22T13:08:40.517Z,2.37
2023-05-22T13:12:40.615Z,2.05
2023-05-22T13:16:40.906Z,2.2
2023-05-22T13:20:39.436Z,2.37
2023-05-22T13:24:40.532Z,2.5
2023-05-22T13:28:39.774Z,1.92
2023-05-22T13:32:40.667Z,2.28
2023-05-22T13:36:40.494Z,2.1
2023-05-22T13:40:40.850Z,2.35
2023-05-22T13:44:40.420Z,2.7
2023-05-22T13:48:40.623Z,2.28
2023-05-22T13:52:40.360Z,2.08
2023-05-22T13:56:40.394Z,2.95
2023-05-22T14:00:41.058Z,2.5
2023-05-22T14:04:40.478Z,2.35
2023-05-22T14:08:40.373Z,2.65
2023-05-22T14:12:40.696Z,2.87
2023-05-22T14:16:40.627Z,2.58
2023-05-22T14:20:40.415Z,2.53
2023-05-22T14:24:40.454Z,2.4
2023-05-22T14:28:40.484Z,2.87
2023-05-22T14:32:40.596Z,2.85
2023-05-22T14:36:40.441Z,2.6
2023-05-22T14:40:40.607Z,2.2
2023-05-22T14:44:40.949Z,2.03
2023-05-22T14:48:40.761Z,2.7
2023-05-22T14:52:40.433Z,3.1
2023-05-22T14:56:40.412Z,2.45
2023-05-22T15:00:40.705Z,2.58
2023-05-22T15:04:41.203Z,2.58
2023-05-22T15:08:40.475Z,2.67
2023-05-22T15:12:40.552Z,2.65
2023-05-22T15:16:40.325Z,2.33
2023-05-22T15:20:40.527Z,2.33
2023-05-22T15:24:40.523Z,2.65
2023-05-22T15:28:40.575Z,2.7
2023-05-22T15:32:40.574Z,2.47
2023-05-22T15:36:40.442Z,2.2
2023-05-22T15:40:40.097Z,2.53
2023-05-22T15:44:40.385Z,2.4
2023-05-22T15:48:40.546Z,3.15
2023-05-22T15:52:40.411Z,2.4
2023-05-22T15:56:40.639Z,2.72
2023-05-22T16:00:39.710Z,2.65
2023-05-22T16:04:40.725Z,3
2023-05-22T16:08:40.569Z,2.7
2023-05-22T16:12:40.474Z,2.12
2023-05-22T16:16:40.361Z,2.42
2023-05-22T16:20:40.544Z,2.33
2023-05-22T16:24:40.443Z,2.9
2023-05-22T16:28:40.710Z,2.7
2023-05-22T16:32:40.568Z,2.37
2023-05-22T16:36:40.476Z,2.58
2023-05-22T16:40:40.516Z,2.6
2023-05-22T16:44:40.508Z,2.42
2023-05-22T16:48:40.741Z,2.5
2023-05-22T16:52:40.455Z,2.62
2023-05-22T16:56:40.498Z,2.35
2023-05-22T17:00:40.677Z,2.87
2023-05-22T17:04:40.645Z,2.7
2023-05-22T17:08:40.904Z,3.25
2023-05-22T17:12:40.708Z,2.6
2023-05-22T17:16:40.624Z,2.85
2023-05-22T17:20:40.629Z,2.45
2023-05-22T17:24:40.458Z,2.53
2023-05-22T17:28:40.567Z,2.87
2023-05-22T17:32:40.395Z,2.33
2023-05-22T17:36:42.586Z,2.3
2023-05-22T17:40:45.716Z,2.53
2023-05-22T17:44:40.493Z,2.45
2023-05-22T17:48:40.464Z,3.1
2023-05-22T17:52:40.638Z,2.8
2023-05-22T17:56:40.585Z,2.53
2023-05-22T18:00:39.652Z,2.7
2023-05-22T18:04:40.913Z,2.72
2023-05-22T18:08:40.547Z,2.78
2023-05-22T18:12:40.383Z,2.22
2023-05-22T18:16:40.516Z,3.12
2023-05-22T18:20:40.767Z,3.3
2023-05-22T18:24:40.518Z,2.72
2023-05-22T18:28:40.648Z,2.75
2023-05-22T18:32:40.761Z,2.6
2023-05-22T18:36:40.499Z,3.37
2023-05-22T18:40:40.904Z,2.42
2023-05-22T18:44:40.633Z,2.65
2023-05-22T18:48:40.601Z,2.87
2023-05-22T18:52:40.545Z,2.78
2023-05-22T18:56:40.687Z,2.85
2023-05-22T19:00:40.918Z,2.9
2023-05-22T19:04:40.840Z,2.75
2023-05-22T19:08:40.608Z,3.05
2023-05-22T19:12:40.407Z,2.6
2023-05-22T19:16:40.780Z,2.08
2023-05-22T19:20:40.601Z,2.92
2023-05-22T19:24:40.589Z,3.35
2023-05-22T19:28:40.624Z,2.65
2023-05-22T19:32:40.571Z,2.6
2023-05-22T19:36:40.329Z,3.03
2023-05-22T19:40:40.441Z,3.47
2023-05-22T19:44:40.649Z,3
2023-05-22T19:48:40.861Z,3.62
2023-05-22T19:52:40.684Z,3.5
2023-05-22T19:56:40.376Z,3.33
2023-05-22T20:00:41.182Z,3.4
2023-05-22T20:04:40.632Z,3.12
2023-05-22T20:08:40.545Z,3.22
2023-05-22T20:12:40.567Z,3.1
2023-05-22T20:16:39.612Z,3.1
2023-05-22T20:20:40.539Z,3.22
2023-05-22T20:24:40.474Z,2.92
2023-05-22T20:28:40.421Z,3.8
2023-05-22T20:32:40.509Z,3.17
2023-05-22T20:36:40.491Z,3.37
2023-05-22T20:40:40.556Z,3.17
2023-05-22T20:44:40.543Z,2.42
2023-05-22T20:48:40.394Z,2.92
2023-05-22T20:52:40.482Z,2.95
2023-05-22T20:56:40.557Z,2.92
2023-05-22T21:00:40.853Z,3.03
2023-05-22T21:04:40.518Z,3
2023-05-22T21:08:40.474Z,3.3
2023-05-22T21:12:40.394Z,3
2023-05-22T21:16:40.594Z,2.62
2023-05-22T21:20:41.379Z,2.9
2023-05-22T21:24:40.418Z,3.9
2023-05-22T21:28:40.609Z,3.3
2023-05-22T21:32:40.474Z,3.58
2023-05-22T21:36:40.438Z,3.22
2023-05-22T21:40:39.800Z,2.87
2023-05-22T21:44:40.535Z,3.2
2023-05-22T21:48:40.804Z,3.8
2023-05-22T21:52:40.328Z,3.92
2023-05-22T21:56:40.663Z,3.42
2023-05-22T22:00:40.640Z,3.9
2023-05-22T22:04:40.578Z,4
2023-05-22T22:08:40.450Z,3.3
2023-05-22T22:12:40.786Z,3.4
2023-05-22T22:16:40.379Z,3.45
2023-05-22T22:20:44.797Z,3.85
2023-05-22T22:24:40.423Z,3.25
2023-05-22T22:28:40.281Z,3.65
2023-05-22T22:32:40.621Z,3.67
2023-05-22T22:36:41.234Z,3.47
2023-05-22T22:40:40.675Z,4.25
2023-05-22T22:44:40.258Z,3.9
2023-05-22T22:48:40.650Z,3.9
2023-05-22T22:52:40.507Z,3.75
2023-05-22T22:56:41.237Z,3.25
2023-05-22T23:00:40.468Z,3.53
2023-05-22T23:04:40.570Z,4.37
2023-05-22T23:08:40.522Z,3.75
2023-05-22T23:12:40.440Z,4.22
2023-05-22T23:16:40.895Z,4.15
2023-05-22T23:20:40.293Z,3.75
2023-05-22T23:24:40.585Z,4.2
2023-05-22T23:28:40.454Z,5.07
2023-05-22T23:32:40.441Z,4.3
2023-05-22T23:36:40.457Z,4.62
2023-05-22T23:40:40.620Z,4.32
2023-05-22T23:44:40.553Z,3.6
2023-05-22T23:48:40.662Z,4.05
2023-05-22T23:52:40.445Z,4.3
2023-05-22T23:56:40.305Z,4.7
